sensor_id;sensor_type;location;lat;lon;timestamp;P1;durP1;ratioP1;P2;durP2;ratioP2
17306;SDS011;8771;48.048;7.682;2024-03-23T00:58:45;4.40;;;1.57;;
17306;SDS011;8771;48.048;7.682;2024-03-23T01:03:48;2.00;;;1.80;;
17306;SDS011;8771;48.048;7.682;2024-03-23T01:08:53;1.40;;;1.30;;
17306;SDS011;8771;48.048;7.682;2024-03-23T01:13:56;2.07;;;1.47;;
17306;SDS011;8771;48.048;7.682;2024-03-23T01:18:59;1.40;;;1.30;;
17306;SDS011;8771;48.048;7.682;2024-03-23T01:24:04;4.67;;;2.27;;
17306;SDS011;8771;48.048;7.682;2024-03-23T01:29:10;1.83;;;1.50;;
17306;SDS011;8771;48.048;7.682;2024-03-23T01:34:13;2.03;;;1.40;;
17306;SDS011;8771;48.048;7.682;2024-03-23T01:39:17;4.87;;;1.80;;
17306;SDS011;8771;48.048;7.682;2024-03-23T01:44:20;2.73;;;1.60;;
17306;SDS011;8771;48.048;7.682;2024-03-23T01:49:23;2.50;;;1.50;;
17306;SDS011;8771;48.048;7.682;2024-03-23T01:54:28;1.77;;;1.60;;
17306;SDS011;8771;48.048;7.682;2024-03-23T01:59:32;2.77;;;1.43;;
17306;SDS011;8771;48.048;7.682;2024-03-23T02:04:35;1.87;;;1.70;;
17306;SDS011;8771;48.048;7.682;2024-03-23T02:09:39;2.00;;;1.80;;
17306;SDS011;8771;48.048;7.682;2024-03-23T02:14:43;3.17;;;1.73;;
17306;SDS011;8771;48.048;7.682;2024-03-23T02:19:46;1.77;;;1.40;;
17306;SDS011;8771;48.048;7.682;2024-03-23T02:24:50;3.00;;;2.10;;
17306;SDS011;8771;48.048;7.682;2024-03-23T02:29:53;4.63;;;1.83;;
17306;SDS011;8771;48.048;7.682;2024-03-23T02:34:58;2.70;;;1.80;;
17306;SDS011;8771;48.048;7.682;2024-03-23T02:40:02;2.83;;;1.60;;
17306;SDS011;8771;48.048;7.682;2024-03-23T02:45:06;3.80;;;1.80;;
17306;SDS011;8771;48.048;7.682;2024-03-23T02:50:11;4.23;;;2.17;;
17306;SDS011;8771;48.048;7.682;2024-03-23T02:55:16;4.87;;;2.13;;
17306;SDS011;8771;48.048;7.682;2024-03-23T03:00:33;2.60;;;1.80;;
17306;SDS011;8771;48.048;7.682;2024-03-23T03:05:54;2.90;;;1.87;;
17306;SDS011;8771;48.048;7.682;2024-03-23T03:10:59;2.03;;;1.60;;
17306;SDS011;8771;48.048;7.682;2024-03-23T03:16:03;2.07;;;1.90;;
17306;SDS011;8771;48.048;7.682;2024-03-23T03:21:10;1.50;;;1.50;;
17306;SDS011;8771;48.048;7.682;2024-03-23T03:26:14;2.17;;;1.97;;
17306;SDS011;8771;48.048;7.682;2024-03-23T03:31:17;2.20;;;1.97;;
17306;SDS011;8771;48.048;7.682;2024-03-23T03:36:34;2.90;;;2.20;;
17306;SDS011;8771;48.048;7.682;2024-03-23T03:41:39;1.90;;;1.80;;
17306;SDS011;8771;48.048;7.682;2024-03-23T03:46:42;2.17;;;1.97;;
17306;SDS011;8771;48.048;7.682;2024-03-23T03:51:44;2.67;;;2.03;;
17306;SDS011;8771;48.048;7.682;2024-03-23T03:56:48;2.13;;;1.93;;
17306;SDS011;8771;48.048;7.682;2024-03-23T04:01:51;3.07;;;2.10;;
17306;SDS011;8771;48.048;7.682;2024-03-23T04:06:57;3.57;;;2.10;;
17306;SDS011;8771;48.048;7.682;2024-03-23T04:12:01;2.03;;;1.90;;
17306;SDS011;8771;48.048;7.682;2024-03-23T04:17:04;3.80;;;2.47;;
17306;SDS011;8771;48.048;7.682;2024-03-23T04:22:07;3.40;;;2.20;;
17306;SDS011;8771;48.048;7.682;2024-03-23T04:27:11;2.07;;;1.87;;
17306;SDS011;8771;48.048;7.682;2024-03-23T04:32:15;3.53;;;1.93;;
17306;SDS011;8771;48.048;7.682;2024-03-23T04:37:18;2.80;;;2.43;;
17306;SDS011;8771;48.048;7.682;2024-03-23T04:42:23;2.80;;;2.60;;
17306;SDS011;8771;48.048;7.682;2024-03-23T04:47:26;4.60;;;2.73;;
17306;SDS011;8771;48.048;7.682;2024-03-23T04:52:29;5.30;;;2.87;;
17306;SDS011;8771;48.048;7.682;2024-03-23T04:57:33;3.97;;;2.47;;
17306;SDS011;8771;48.048;7.682;2024-03-23T05:02:36;2.77;;;2.57;;
17306;SDS011;8771;48.048;7.682;2024-03-23T05:07:39;2.53;;;2.33;;
17306;SDS011;8771;48.048;7.682;2024-03-23T05:12:43;4.23;;;2.80;;
17306;SDS011;8771;48.048;7.682;2024-03-23T05:17:46;3.03;;;2.33;;
17306;SDS011;8771;48.048;7.682;2024-03-23T05:22:49;3.70;;;2.97;;
17306;SDS011;8771;48.048;7.682;2024-03-23T05:27:54;2.50;;;2.30;;
17306;SDS011;8771;48.048;7.682;2024-03-23T05:32:57;3.47;;;2.50;;
17306;SDS011;8771;48.048;7.682;2024-03-23T05:37:59;3.00;;;2.67;;
17306;SDS011;8771;48.048;7.682;2024-03-23T05:43:02;3.83;;;2.80;;
17306;SDS011;8771;48.048;7.682;2024-03-23T05:48:05;4.30;;;3.90;;
17306;SDS011;8771;48.048;7.682;2024-03-23T05:53:08;4.03;;;3.73;;
17306;SDS011;8771;48.048;7.682;2024-03-23T05:58:11;3.00;;;2.70;;
17306;SDS011;8771;48.048;7.682;2024-03-23T06:03:16;1.60;;;1.50;;
17306;SDS011;8771;48.048;7.682;2024-03-23T06:08:19;2.60;;;2.40;;
17306;SDS011;8771;48.048;7.682;2024-03-23T06:13:24;2.27;;;2.10;;
17306;SDS011;8771;48.048;7.682;2024-03-23T06:18:31;0.53;;;0.53;;
17306;SDS011;8771;48.048;7.682;2024-03-23T06:23:34;0.67;;;0.67;;
17306;SDS011;8771;48.048;7.682;2024-03-23T06:28:39;0.20;;;0.20;;
17306;SDS011;8771;48.048;7.682;2024-03-23T06:33:42;0.40;;;0.40;;
17306;SDS011;8771;48.048;7.682;2024-03-23T06:38:45;0.30;;;0.30;;
17306;SDS011;8771;48.048;7.682;2024-03-23T06:43:49;0.30;;;0.30;;
17306;SDS011;8771;48.048;7.682;2024-03-23T06:48:52;0.47;;;0.30;;
17306;SDS011;8771;48.048;7.682;2024-03-23T06:53:55;0.30;;;0.30;;
17306;SDS011;8771;48.048;7.682;2024-03-23T06:59:00;0.33;;;0.33;;
17306;SDS011;8771;48.048;7.682;2024-03-23T07:04:03;0.23;;;0.23;;
17306;SDS011;8771;48.048;7.682;2024-03-23T07:09:06;0.20;;;0.20;;
17306;SDS011;8771;48.048;7.682;2024-03-23T07:14:10;0.20;;;0.20;;
17306;SDS011;8771;48.048;7.682;2024-03-23T07:19:14;0.40;;;0.40;;
17306;SDS011;8771;48.048;7.682;2024-03-23T07:24:17;0.60;;;0.30;;
17306;SDS011;8771;48.048;7.682;2024-03-23T07:29:22;0.27;;;0.23;;
17306;SDS011;8771;48.048;7.682;2024-03-23T07:34:25;0.50;;;0.50;;
17306;SDS011;8771;48.048;7.682;2024-03-23T07:39:28;0.83;;;0.60;;
17306;SDS011;8771;48.048;7.682;2024-03-23T07:44:34;1.37;;;0.60;;
17306;SDS011;8771;48.048;7.682;2024-03-23T07:49:37;0.50;;;0.50;;
17306;SDS011;8771;48.048;7.682;2024-03-23T07:54:41;0.97;;;0.53;;
17306;SDS011;8771;48.048;7.682;2024-03-23T07:59:45;2.63;;;0.90;;
17306;SDS011;8771;48.048;7.682;2024-03-23T08:04:48;1.23;;;1.00;;
17306;SDS011;8771;48.048;7.682;2024-03-23T08:09:51;2.00;;;1.10;;
17306;SDS011;8771;48.048;7.682;2024-03-23T08:14:55;3.90;;;1.43;;
17306;SDS011;8771;48.048;7.682;2024-03-23T08:19:58;4.00;;;1.60;;
17306;SDS011;8771;48.048;7.682;2024-03-23T08:25:15;4.83;;;1.60;;
17306;SDS011;8771;48.048;7.682;2024-03-23T08:30:34;6.23;;;2.23;;
17306;SDS011;8771;48.048;7.682;2024-03-23T08:35:36;4.10;;;2.07;;
17306;SDS011;8771;48.048;7.682;2024-03-23T08:40:41;3.80;;;2.00;;
17306;SDS011;8771;48.048;7.682;2024-03-23T08:45:45;4.57;;;2.20;;
17306;SDS011;8771;48.048;7.682;2024-03-23T08:50:57;3.73;;;1.90;;
17306;SDS011;8771;48.048;7.682;2024-03-23T08:56:02;3.83;;;1.80;;
17306;SDS011;8771;48.048;7.682;2024-03-23T09:01:09;4.80;;;1.90;;
17306;SDS011;8771;48.048;7.682;2024-03-23T09:06:13;4.77;;;2.03;;
17306;SDS011;8771;48.048;7.682;2024-03-23T09:11:18;5.00;;;2.20;;
17306;SDS011;8771;48.048;7.682;2024-03-23T09:16:22;4.20;;;2.17;;
17306;SDS011;8771;48.048;7.682;2024-03-23T09:21:25;4.97;;;2.10;;
17306;SDS011;8771;48.048;7.682;2024-03-23T09:26:27;4.20;;;1.90;;
17306;SDS011;8771;48.048;7.682;2024-03-23T09:31:31;4.03;;;1.37;;
17306;SDS011;8771;48.048;7.682;2024-03-23T09:36:40;4.67;;;1.53;;
17306;SDS011;8771;48.048;7.682;2024-03-23T09:41:43;2.67;;;1.50;;
17306;SDS011;8771;48.048;7.682;2024-03-23T09:46:48;2.17;;;1.40;;
17306;SDS011;8771;48.048;7.682;2024-03-23T09:51:50;3.80;;;1.47;;
17306;SDS011;8771;48.048;7.682;2024-03-23T09:56:53;4.47;;;1.53;;
17306;SDS011;8771;48.048;7.682;2024-03-23T10:01:57;3.13;;;1.60;;
17306;SDS011;8771;48.048;7.682;2024-03-23T10:07:03;5.43;;;1.67;;
17306;SDS011;8771;48.048;7.682;2024-03-23T10:12:14;4.87;;;2.07;;
17306;SDS011;8771;48.048;7.682;2024-03-23T10:17:22;2.40;;;1.23;;
17306;SDS011;8771;48.048;7.682;2024-03-23T10:22:26;1.37;;;1.10;;
17306;SDS011;8771;48.048;7.682;2024-03-23T10:27:29;2.00;;;0.80;;
17306;SDS011;8771;48.048;7.682;2024-03-23T10:32:32;2.53;;;0.80;;
17306;SDS011;8771;48.048;7.682;2024-03-23T10:37:35;2.33;;;0.93;;
17306;SDS011;8771;48.048;7.682;2024-03-23T10:42:37;1.27;;;0.83;;
17306;SDS011;8771;48.048;7.682;2024-03-23T10:47:42;2.00;;;1.10;;
17306;SDS011;8771;48.048;7.682;2024-03-23T10:52:45;1.23;;;0.70;;
17306;SDS011;8771;48.048;7.682;2024-03-23T10:57:49;1.40;;;0.63;;
17306;SDS011;8771;48.048;7.682;2024-03-23T11:02:55;2.80;;;0.87;;
17306;SDS011;8771;48.048;7.682;2024-03-23T11:08:00;1.53;;;1.03;;
17306;SDS011;8771;48.048;7.682;2024-03-23T11:18:27;5.00;;;1.87;;
17306;SDS011;8771;48.048;7.682;2024-03-23T11:23:30;4.30;;;1.53;;
17306;SDS011;8771;48.048;7.682;2024-03-23T11:28:33;5.93;;;1.60;;
17306;SDS011;8771;48.048;7.682;2024-03-23T11:33:37;3.30;;;1.07;;
17306;SDS011;8771;48.048;7.682;2024-03-23T11:38:40;5.13;;;1.50;;
17306;SDS011;8771;48.048;7.682;2024-03-23T11:43:43;3.57;;;1.20;;
17306;SDS011;8771;48.048;7.682;2024-03-23T11:48:50;2.43;;;0.97;;
17306;SDS011;8771;48.048;7.682;2024-03-23T11:53:54;2.27;;;1.30;;
17306;SDS011;8771;48.048;7.682;2024-03-23T11:59:31;2.93;;;1.20;;
17306;SDS011;8771;48.048;7.682;2024-03-23T12:04:36;3.40;;;1.13;;
17306;SDS011;8771;48.048;7.682;2024-03-23T12:09:41;2.70;;;1.00;;
17306;SDS011;8771;48.048;7.682;2024-03-23T12:15:00;2.57;;;1.10;;
17306;SDS011;8771;48.048;7.682;2024-03-23T12:20:08;2.63;;;1.13;;
17306;SDS011;8771;48.048;7.682;2024-03-23T12:25:11;4.60;;;1.47;;
17306;SDS011;8771;48.048;7.682;2024-03-23T12:30:14;6.13;;;1.43;;
17306;SDS011;8771;48.048;7.682;2024-03-23T12:35:17;2.30;;;1.30;;
17306;SDS011;8771;48.048;7.682;2024-03-23T12:40:21;4.60;;;1.20;;
17306;SDS011;8771;48.048;7.682;2024-03-23T12:45:24;3.40;;;1.20;;
17306;SDS011;8771;48.048;7.682;2024-03-23T12:50:28;3.13;;;1.13;;
17306;SDS011;8771;48.048;7.682;2024-03-23T12:55:31;3.90;;;1.37;;
17306;SDS011;8771;48.048;7.682;2024-03-23T13:00:36;1.77;;;1.03;;
17306;SDS011;8771;48.048;7.682;2024-03-23T13:05:40;2.70;;;1.23;;
17306;SDS011;8771;48.048;7.682;2024-03-23T13:10:43;2.83;;;1.07;;
17306;SDS011;8771;48.048;7.682;2024-03-23T13:15:49;4.27;;;1.00;;
17306;SDS011;8771;48.048;7.682;2024-03-23T13:20:53;3.60;;;1.47;;
17306;SDS011;8771;48.048;7.682;2024-03-23T13:25:56;3.50;;;1.33;;
17306;SDS011;8771;48.048;7.682;2024-03-23T13:30:59;1.57;;;0.93;;
17306;SDS011;8771;48.048;7.682;2024-03-23T13:36:07;5.73;;;1.40;;
17306;SDS011;8771;48.048;7.682;2024-03-23T13:41:10;2.77;;;1.43;;
17306;SDS011;8771;48.048;7.682;2024-03-23T13:46:15;3.10;;;1.23;;
17306;SDS011;8771;48.048;7.682;2024-03-23T13:51:22;2.10;;;1.13;;
17306;SDS011;8771;48.048;7.682;2024-03-23T13:56:28;2.60;;;1.30;;
17306;SDS011;8771;48.048;7.682;2024-03-23T14:01:31;1.80;;;1.13;;
17306;SDS011;8771;48.048;7.682;2024-03-23T14:06:34;1.70;;;1.10;;
17306;SDS011;8771;48.048;7.682;2024-03-23T14:11:37;2.70;;;1.30;;
17306;SDS011;8771;48.048;7.682;2024-03-23T14:16:40;1.53;;;0.80;;
17306;SDS011;8771;48.048;7.682;2024-03-23T14:21:45;1.53;;;0.83;;
17306;SDS011;8771;48.048;7.682;2024-03-23T14:26:47;1.97;;;1.23;;
17306;SDS011;8771;48.048;7.682;2024-03-23T14:31:50;2.67;;;1.13;;
17306;SDS011;8771;48.048;7.682;2024-03-23T14:36:55;1.83;;;1.00;;
17306;SDS011;8771;48.048;7.682;2024-03-23T14:41:58;1.97;;;0.87;;
17306;SDS011;8771;48.048;7.682;2024-03-23T14:47:01;1.90;;;0.90;;
17306;SDS011;8771;48.048;7.682;2024-03-23T14:52:04;2.20;;;1.13;;
17306;SDS011;8771;48.048;7.682;2024-03-23T14:57:08;1.60;;;1.33;;
17306;SDS011;8771;48.048;7.682;2024-03-23T15:02:11;2.50;;;0.97;;
17306;SDS011;8771;48.048;7.682;2024-03-23T15:07:15;2.27;;;1.00;;
17306;SDS011;8771;48.048;7.682;2024-03-23T15:12:24;4.43;;;1.63;;
17306;SDS011;8771;48.048;7.682;2024-03-23T15:17:26;1.30;;;1.20;;
17306;SDS011;8771;48.048;7.682;2024-03-23T15:22:29;1.53;;;0.93;;
17306;SDS011;8771;48.048;7.682;2024-03-23T15:27:31;2.50;;;1.00;;
17306;SDS011;8771;48.048;7.682;2024-03-23T15:32:33;0.93;;;0.73;;
17306;SDS011;8771;48.048;7.682;2024-03-23T15:37:37;2.30;;;0.60;;
17306;SDS011;8771;48.048;7.682;2024-03-23T15:42:41;1.30;;;0.63;;
17306;SDS011;8771;48.048;7.682;2024-03-23T15:47:43;2.53;;;0.97;;
17306;SDS011;8771;48.048;7.682;2024-03-23T15:52:47;0.87;;;0.70;;
17306;SDS011;8771;48.048;7.682;2024-03-23T15:57:51;1.43;;;0.70;;
17306;SDS011;8771;48.048;7.682;2024-03-23T16:02:54;1.77;;;1.10;;
17306;SDS011;8771;48.048;7.682;2024-03-23T16:07:58;1.87;;;0.60;;
17306;SDS011;8771;48.048;7.682;2024-03-23T16:13:00;0.50;;;0.30;;
17306;SDS011;8771;48.048;7.682;2024-03-23T16:18:02;1.93;;;0.60;;
17306;SDS011;8771;48.048;7.682;2024-03-23T16:23:06;0.40;;;0.40;;
17306;SDS011;8771;48.048;7.682;2024-03-23T16:28:09;1.10;;;0.50;;
17306;SDS011;8771;48.048;7.682;2024-03-23T16:33:12;1.13;;;0.70;;
17306;SDS011;8771;48.048;7.682;2024-03-23T16:38:16;0.40;;;0.40;;
17306;SDS011;8771;48.048;7.682;2024-03-23T16:43:21;0.47;;;0.47;;
17306;SDS011;8771;48.048;7.682;2024-03-23T16:48:24;1.07;;;0.50;;
17306;SDS011;8771;48.048;7.682;2024-03-23T16:53:29;0.60;;;0.60;;
17306;SDS011;8771;48.048;7.682;2024-03-23T16:58:33;1.33;;;0.60;;
17306;SDS011;8771;48.048;7.682;2024-03-23T17:03:36;0.70;;;0.70;;
17306;SDS011;8771;48.048;7.682;2024-03-23T17:08:41;2.43;;;1.50;;
17306;SDS011;8771;48.048;7.682;2024-03-23T17:13:44;1.63;;;1.00;;
17306;SDS011;8771;48.048;7.682;2024-03-23T17:18:48;2.77;;;1.90;;
17306;SDS011;8771;48.048;7.682;2024-03-23T17:23:54;0.90;;;0.80;;
17306;SDS011;8771;48.048;7.682;2024-03-23T17:28:58;1.33;;;0.60;;
17306;SDS011;8771;48.048;7.682;2024-03-23T17:34:01;2.93;;;0.80;;
17306;SDS011;8771;48.048;7.682;2024-03-23T17:39:05;0.57;;;0.50;;
17306;SDS011;8771;48.048;7.682;2024-03-23T17:44:10;3.63;;;3.03;;
17306;SDS011;8771;48.048;7.682;2024-03-23T17:49:13;7.93;;;4.60;;
17306;SDS011;8771;48.048;7.682;2024-03-23T17:54:18;1.17;;;0.63;;
17306;SDS011;8771;48.048;7.682;2024-03-23T17:59:21;1.37;;;0.80;;
17306;SDS011;8771;48.048;7.682;2024-03-23T18:04:24;2.27;;;1.80;;
17306;SDS011;8771;48.048;7.682;2024-03-23T18:09:29;6.23;;;3.50;;
17306;SDS011;8771;48.048;7.682;2024-03-23T18:14:32;3.83;;;2.80;;
17306;SDS011;8771;48.048;7.682;2024-03-23T18:19:34;2.60;;;1.70;;
17306;SDS011;8771;48.048;7.682;2024-03-23T18:24:38;4.43;;;1.10;;
17306;SDS011;8771;48.048;7.682;2024-03-23T18:29:41;2.40;;;0.90;;
17306;SDS011;8771;48.048;7.682;2024-03-23T18:34:45;4.43;;;1.67;;
17306;SDS011;8771;48.048;7.682;2024-03-23T18:39:49;2.97;;;1.60;;
17306;SDS011;8771;48.048;7.682;2024-03-23T18:44:52;1.53;;;1.00;;
17306;SDS011;8771;48.048;7.682;2024-03-23T18:49:55;7.93;;;6.40;;
17306;SDS011;8771;48.048;7.682;2024-03-23T18:54:59;10.67;;;8.73;;
17306;SDS011;8771;48.048;7.682;2024-03-23T19:00:03;1.90;;;1.43;;
17306;SDS011;8771;48.048;7.682;2024-03-23T19:05:10;1.47;;;0.80;;
17306;SDS011;8771;48.048;7.682;2024-03-23T19:10:14;1.93;;;1.00;;
17306;SDS011;8771;48.048;7.682;2024-03-23T19:15:17;1.20;;;1.10;;
17306;SDS011;8771;48.048;7.682;2024-03-23T19:20:21;1.53;;;0.67;;
17306;SDS011;8771;48.048;7.682;2024-03-23T19:25:25;1.97;;;0.80;;
17306;SDS011;8771;48.048;7.682;2024-03-23T19:30:28;1.27;;;0.67;;
17306;SDS011;8771;48.048;7.682;2024-03-23T19:35:30;1.17;;;1.07;;
17306;SDS011;8771;48.048;7.682;2024-03-23T19:40:35;1.17;;;1.00;;
17306;SDS011;8771;48.048;7.682;2024-03-23T19:45:38;1.60;;;1.50;;
17306;SDS011;8771;48.048;7.682;2024-03-23T19:50:41;1.70;;;1.60;;
17306;SDS011;8771;48.048;7.682;2024-03-23T19:55:44;1.20;;;1.17;;
17306;SDS011;8771;48.048;7.682;2024-03-23T20:01:12;0.30;;;0.30;;
17306;SDS011;8771;48.048;7.682;2024-03-23T20:06:31;0.80;;;0.67;;
17306;SDS011;8771;48.048;7.682;2024-03-23T20:11:50;0.40;;;0.40;;
17306;SDS011;8771;48.048;7.682;2024-03-23T20:17:07;0.43;;;0.40;;
17306;SDS011;8771;48.048;7.682;2024-03-23T20:22:08;0.97;;;0.63;;
17306;SDS011;8771;48.048;7.682;2024-03-23T20:27:15;3.83;;;2.47;;
17306;SDS011;8771;48.048;7.682;2024-03-23T20:32:18;1.27;;;0.83;;
17306;SDS011;8771;48.048;7.682;2024-03-23T20:37:21;1.53;;;0.60;;
17306;SDS011;8771;48.048;7.682;2024-03-23T20:42:25;2.10;;;1.90;;
17306;SDS011;8771;48.048;7.682;2024-03-23T20:47:28;1.93;;;1.00;;
17306;SDS011;8771;48.048;7.682;2024-03-23T20:52:31;2.40;;;0.70;;
17306;SDS011;8771;48.048;7.682;2024-03-23T20:57:37;2.93;;;1.60;;
17306;SDS011;8771;48.048;7.682;2024-03-23T21:02:40;2.10;;;1.10;;
17306;SDS011;8771;48.048;7.682;2024-03-23T21:07:44;1.27;;;0.70;;
17306;SDS011;8771;48.048;7.682;2024-03-23T21:12:48;0.53;;;0.53;;
17306;SDS011;8771;48.048;7.682;2024-03-23T21:17:51;0.90;;;0.80;;
17306;SDS011;8771;48.048;7.682;2024-03-23T21:22:55;1.17;;;0.73;;
17306;SDS011;8771;48.048;7.682;2024-03-23T21:28:01;0.80;;;0.80;;
17306;SDS011;8771;48.048;7.682;2024-03-23T21:33:05;1.60;;;1.17;;
17306;SDS011;8771;48.048;7.682;2024-03-23T21:38:08;3.33;;;2.13;;
17306;SDS011;8771;48.048;7.682;2024-03-23T21:43:13;4.27;;;3.27;;
17306;SDS011;8771;48.048;7.682;2024-03-23T21:48:16;6.43;;;3.73;;
17306;SDS011;8771;48.048;7.682;2024-03-23T21:53:19;1.40;;;1.30;;
17306;SDS011;8771;48.048;7.682;2024-03-23T21:58:24;4.43;;;1.60;;
17306;SDS011;8771;48.048;7.682;2024-03-23T22:03:28;1.53;;;1.20;;
17306;SDS011;8771;48.048;7.682;2024-03-23T22:08:30;1.77;;;1.23;;
17306;SDS011;8771;48.048;7.682;2024-03-23T22:13:33;1.80;;;1.23;;
17306;SDS011;8771;48.048;7.682;2024-03-23T22:18:35;1.80;;;0.83;;
17306;SDS011;8771;48.048;7.682;2024-03-23T22:23:37;2.80;;;1.30;;
17306;SDS011;8771;48.048;7.682;2024-03-23T22:28:55;1.90;;;0.90;;
17306;SDS011;8771;48.048;7.682;2024-03-23T22:33:57;0.93;;;0.87;;
17306;SDS011;8771;48.048;7.682;2024-03-23T22:38:59;0.90;;;0.63;;
17306;SDS011;8771;48.048;7.682;2024-03-23T22:44:21;2.27;;;0.73;;
17306;SDS011;8771;48.048;7.682;2024-03-23T22:49:24;2.87;;;1.00;;
17306;SDS011;8771;48.048;7.682;2024-03-23T22:54:27;2.13;;;1.20;;
17306;SDS011;8771;48.048;7.682;2024-03-23T22:59:31;2.87;;;1.10;;
17306;SDS011;8771;48.048;7.682;2024-03-23T23:04:34;2.13;;;0.90;;
17306;SDS011;8771;48.048;7.682;2024-03-23T23:09:37;2.53;;;1.03;;
17306;SDS011;8771;48.048;7.682;2024-03-23T23:14:44;2.93;;;1.07;;
17306;SDS011;8771;48.048;7.682;2024-03-23T23:19:47;3.40;;;0.87;;
17306;SDS011;8771;48.048;7.682;2024-03-23T23:24:49;0.83;;;0.77;;
17306;SDS011;8771;48.048;7.682;2024-03-23T23:29:54;2.43;;;0.90;;
17306;SDS011;8771;48.048;7.682;2024-03-23T23:34:57;1.13;;;0.90;;
17306;SDS011;8771;48.048;7.682;2024-03-23T23:40:00;2.20;;;1.13;;
17306;SDS011;8771;48.048;7.682;2024-03-23T23:45:09;3.07;;;1.00;;
17306;SDS011;8771;48.048;7.682;2024-03-23T23:50:11;1.60;;;1.10;;
17306;SDS011;8771;48.048;7.682;2024-03-23T23:55:14;2.87;;;0.93;;
